Time;durP1;ratioP1;P1;durP2;ratioP2;P2;SDS_P1;SDS_P2;PMS_P1;PMS_P2;Temp;Humidity;BMP_temperature;BMP_pressure;BME280_temperature;BME280_humidity;BME280_pressure;Samples;Min_cycle;Max_cycle;Signal;HPM_P1;HPM_P2
2023/06/11 00:00:09;;;;;;;2.10;1.30;;;;;;;;;;6143369;23;20095;-59
2023/06/11 00:02:39;;;;;;;1.77;1.27;;;;;;;;;;6143977;23;20104;-43
2023/06/11 00:05:15;;;;;;;2.88;1.52;;;;;;;;;;6145951;23;20029;-48
2023/06/11 00:07:43;;;;;;;1.98;1.20;;;;;;;;;;6143212;23;20047;-47
2023/06/11 00:10:10;;;;;;;5.40;1.45;;;;;;;;;;6138334;23;20136;-48
2023/06/11 00:12:44;;;;;;;3.08;1.10;;;;;;;;;;6142616;23;20025;-46
2023/06/11 00:15:11;;;;;;;2.00;1.00;;;;;;;;;;6119196;23;20028;-50
2023/06/11 00:17:47;;;;;;;1.75;1.30;;;;;;;;;;6144306;23;20022;-49
2023/06/11 00:20:15;;;;;;;4.88;1.15;;;;;;;;;;6144359;23;20416;-45
2023/06/11 00:22:43;;;;;;;3.53;1.17;;;;;;;;;;6144997;23;20554;-51
2023/06/11 00:25:17;;;;;;;2.55;1.27;;;;;;;;;;6143399;23;20259;-50
2023/06/11 00:27:44;;;;;;;2.28;1.10;;;;;;;;;;6145797;23;20025;-45
2023/06/11 00:30:12;;;;;;;2.70;1.30;;;;;;;;;;6145937;23;20025;-49
2023/06/11 00:32:46;;;;;;;1.70;1.20;;;;;;;;;;6142889;23;20049;-48
2023/06/11 00:35:13;;;;;;;4.75;1.38;;;;;;;;;;6144617;23;20032;-45
2023/06/11 00:37:49;;;;;;;3.60;1.35;;;;;;;;;;6144499;23;20041;-44
2023/06/11 00:40:17;;;;;;;2.53;1.35;;;;;;;;;;6141743;23;20819;-45
2023/06/11 00:42:45;;;;;;;2.15;0.98;;;;;;;;;;6144186;23;20025;-44
2023/06/11 00:45:19;;;;;;;2.85;1.35;;;;;;;;;;6144933;23;20033;-45
2023/06/11 00:47:46;;;;;;;4.35;1.60;;;;;;;;;;6142172;23;20374;-43
2023/06/11 00:50:28;;;;;;;1.77;1.13;;;;;;;;;;6116341;23;20463;-58
2023/06/11 00:52:55;;;;;;;3.30;1.42;;;;;;;;;;6113833;23;20025;-57
2023/06/11 00:55:30;;;;;;;4.43;1.30;;;;;;;;;;6116439;23;20033;-58
2023/06/11 00:57:57;;;;;;;1.40;1.30;;;;;;;;;;6114439;23;20022;-58
2023/06/11 01:00:24;;;;;;;3.20;1.45;;;;;;;;;;6113827;23;20092;-46
2023/06/11 01:03:07;;;;;;;1.23;1.10;;;;;;;;;;6116091;23;20022;-48
2023/06/11 01:05:43;;;;;;;1.58;1.13;;;;;;;;;;6115989;23;20026;-50
2023/06/11 01:08:19;;;;;;;1.88;1.27;;;;;;;;;;6116141;23;20018;-48
2023/06/11 01:10:49;;;;;;;4.90;1.20;;;;;;;;;;6115708;23;20048;-47
2023/06/11 01:13:23;;;;;;;2.83;1.38;;;;;;;;;;6116285;23;20025;-51
2023/06/11 01:15:51;;;;;;;5.15;1.48;;;;;;;;;;6114774;23;20026;-47
2023/06/11 01:18:28;;;;;;;2.38;1.45;;;;;;;;;;6115073;23;20022;-57
2023/06/11 01:21:09;;;;;;;0.85;0.85;;;;;;;;;;6114627;23;20021;-58
2023/06/11 01:23:49;;;;;;;5.07;1.42;;;;;;;;;;6114254;23;20022;-53
2023/06/11 01:26:25;;;;;;;2.00;1.23;;;;;;;;;;6114730;23;20038;-53
2023/06/11 01:29:00;;;;;;;2.20;1.38;;;;;;;;;;6113987;23;20029;-48
2023/06/11 01:31:37;;;;;;;1.50;1.40;;;;;;;;;;6114857;23;20030;-45
2023/06/11 01:34:05;;;;;;;3.85;1.30;;;;;;;;;;6088941;23;20084;-47
2023/06/11 01:36:39;;;;;;;2.78;1.20;;;;;;;;;;6115052;23;20419;-49
2023/06/11 01:39:06;;;;;;;4.95;1.50;;;;;;;;;;6115462;23;20025;-49
2023/06/11 01:41:34;;;;;;;3.85;1.20;;;;;;;;;;6116648;23;20655;-48
2023/06/11 01:44:08;;;;;;;2.67;1.08;;;;;;;;;;6113336;23;20077;-47
2023/06/11 01:46:35;;;;;;;3.97;1.67;;;;;;;;;;6115369;23;20045;-47
2023/06/11 01:49:22;;;;;;;2.35;1.38;;;;;;;;;;6132778;23;20036;-45
2023/06/11 01:51:56;;;;;;;2.33;1.45;;;;;;;;;;6144112;23;20583;-47
2023/06/11 01:54:30;;;;;;;4.47;1.63;;;;;;;;;;6144997;23;20029;-45
2023/06/11 01:56:57;;;;;;;3.50;1.50;;;;;;;;;;6147486;23;20018;-58
2023/06/11 01:59:25;;;;;;;2.78;1.50;;;;;;;;;;6146303;23;20032;-48
2023/06/11 02:01:59;;;;;;;1.52;1.40;;;;;;;;;;6143972;23;20017;-51
2023/06/11 02:04:26;;;;;;;5.05;1.58;;;;;;;;;;6145141;23;20056;-47
2023/06/11 02:07:01;;;;;;;3.90;1.20;;;;;;;;;;6144514;23;20084;-48
2023/06/11 02:09:28;;;;;;;2.60;1.30;;;;;;;;;;6145170;23;20030;-46
2023/06/11 02:11:55;;;;;;;1.90;1.25;;;;;;;;;;6146957;23;20090;-48
2023/06/11 02:14:29;;;;;;;2.95;1.25;;;;;;;;;;6146477;23;20030;-49
2023/06/11 02:16:56;;;;;;;2.80;1.23;;;;;;;;;;6146743;23;20025;-55
2023/06/11 02:19:30;;;;;;;4.43;1.20;;;;;;;;;;6146703;23;20033;-54
2023/06/11 02:21:57;;;;;;;2.30;1.48;;;;;;;;;;6144598;23;20079;-52
2023/06/11 02:24:26;;;;;;;5.47;2.00;;;;;;;;;;6139337;23;20104;-56
2023/06/11 02:27:00;;;;;;;2.28;1.35;;;;;;;;;;6146074;23;20819;-56
2023/06/11 02:29:27;;;;;;;4.88;2.00;;;;;;;;;;6149009;23;20436;-56
2023/06/11 02:32:01;;;;;;;2.38;1.40;;;;;;;;;;6142807;23;20859;-57
2023/06/11 02:34:28;;;;;;;2.85;1.58;;;;;;;;;;6146723;23;20392;-57
2023/06/11 02:36:56;;;;;;;6.07;1.80;;;;;;;;;;6144039;23;20508;-53
2023/06/11 02:39:30;;;;;;;5.20;1.63;;;;;;;;;;6122178;23;20495;-55
2023/06/11 02:41:57;;;;;;;3.17;1.08;;;;;;;;;;6146522;23;20040;-57
2023/06/11 02:44:24;;;;;;;3.78;1.60;;;;;;;;;;6145365;23;20096;-49
2023/06/11 02:46:58;;;;;;;2.22;1.42;;;;;;;;;;6144963;23;20021;-57
2023/06/11 02:49:32;;;;;;;2.03;1.67;;;;;;;;;;6144525;23;20092;-54
2023/06/11 02:52:05;;;;;;;3.35;1.50;;;;;;;;;;6145141;23;20441;-57
2023/06/11 02:54:32;;;;;;;4.82;1.27;;;;;;;;;;6145849;23;20548;-55
2023/06/11 02:57:00;;;;;;;5.10;1.60;;;;;;;;;;6144415;23;20021;-57
2023/06/11 02:59:34;;;;;;;3.33;1.55;;;;;;;;;;6147190;23;20021;-58
2023/06/11 03:02:01;;;;;;;2.10;1.52;;;;;;;;;;6142539;23;20497;-49
2023/06/11 03:04:36;;;;;;;4.68;1.60;;;;;;;;;;6146571;23;20029;-48
2023/06/11 03:07:03;;;;;;;3.42;1.38;;;;;;;;;;6145566;23;20552;-42
2023/06/11 03:09:30;;;;;;;2.30;1.42;;;;;;;;;;6145054;23;20028;-43
2023/06/11 03:12:05;;;;;;;2.53;1.20;;;;;;;;;;6142948;23;20026;-45
2023/06/11 03:14:32;;;;;;;7.78;1.60;;;;;;;;;;6116610;23;20030;-45
2023/06/11 03:17:06;;;;;;;3.55;1.80;;;;;;;;;;6145804;23;20030;-42
2023/06/11 03:19:33;;;;;;;2.00;1.45;;;;;;;;;;6141824;23;20026;-42
2023/06/11 03:22:01;;;;;;;2.97;1.35;;;;;;;;;;6146455;23;20032;-43
2023/06/11 03:24:35;;;;;;;3.33;1.65;;;;;;;;;;6145488;23;20029;-51
2023/06/11 03:27:02;;;;;;;4.55;1.67;;;;;;;;;;6144554;23;20029;-45
2023/06/11 03:29:36;;;;;;;4.78;1.98;;;;;;;;;;6146313;23;20088;-48
2023/06/11 03:32:03;;;;;;;2.60;1.60;;;;;;;;;;6146178;23;20026;-45
2023/06/11 03:34:30;;;;;;;2.00;1.63;;;;;;;;;;6146220;23;20021;-46
2023/06/11 03:37:04;;;;;;;3.03;1.48;;;;;;;;;;6144097;23;20049;-44
2023/06/11 03:39:31;;;;;;;1.67;1.33;;;;;;;;;;6147531;23;20080;-57
2023/06/11 03:42:07;;;;;;;5.55;1.63;;;;;;;;;;6145837;23;20029;-49
2023/06/11 03:44:35;;;;;;;2.60;1.40;;;;;;;;;;6146472;23;20087;-50
2023/06/11 03:47:02;;;;;;;1.65;1.20;;;;;;;;;;6144884;23;20095;-45
2023/06/11 03:49:43;;;;;;;2.10;1.55;;;;;;;;;;6144266;23;20393;-45
2023/06/11 03:52:17;;;;;;;1.60;1.50;;;;;;;;;;6145551;23;20084;-47
2023/06/11 03:54:50;;;;;;;3.45;1.42;;;;;;;;;;6147271;23;20026;-46
2023/06/11 03:57:18;;;;;;;15.07;1.73;;;;;;;;;;6142793;23;20084;-49
2023/06/11 03:59:45;;;;;;;9.07;1.73;;;;;;;;;;6146125;23;20025;-50
2023/06/11 04:02:19;;;;;;;5.72;1.58;;;;;;;;;;6147137;23;20501;-51
2023/06/11 04:04:46;;;;;;;3.80;1.45;;;;;;;;;;6146290;23;20018;-54
2023/06/11 04:07:20;;;;;;;1.92;1.30;;;;;;;;;;6146110;23;20025;-47
2023/06/11 04:09:47;;;;;;;2.90;1.30;;;;;;;;;;6146605;23;20502;-51
2023/06/11 04:12:14;;;;;;;3.42;1.58;;;;;;;;;;6146177;23;20025;-49
2023/06/11 04:14:48;;;;;;;1.70;1.30;;;;;;;;;;6144698;23;20107;-46
2023/06/11 04:17:15;;;;;;;4.80;1.50;;;;;;;;;;6146009;23;20021;-59
2023/06/11 04:19:50;;;;;;;4.63;1.55;;;;;;;;;;6145772;23;20088;-44
2023/06/11 04:22:17;;;;;;;2.72;1.55;;;;;;;;;;6143827;23;20045;-45
2023/06/11 04:24:44;;;;;;;3.97;1.40;;;;;;;;;;6145149;23;20081;-45
2023/06/11 04:27:20;;;;;;;2.28;1.23;;;;;;;;;;6144810;23;20096;-44
2023/06/11 04:29:48;;;;;;;3.30;1.30;;;;;;;;;;6145306;23;20021;-45
2023/06/11 04:32:26;;;;;;;4.00;1.42;;;;;;;;;;6145755;23;20053;-45
2023/06/11 04:34:56;;;;;;;5.78;1.52;;;;;;;;;;6144723;23;20056;-52
2023/06/11 04:37:40;;;;;;;1.60;1.40;;;;;;;;;;6143436;23;20025;-44
2023/06/11 04:40:10;;;;;;;3.40;1.42;;;;;;;;;;6145805;23;20029;-45
2023/06/11 04:42:46;;;;;;;1.92;1.45;;;;;;;;;;6145308;23;20025;-45
2023/06/11 04:45:18;;;;;;;2.78;1.10;;;;;;;;;;6143513;23;20021;-46
2023/06/11 04:47:52;;;;;;;3.22;1.40;;;;;;;;;;6145012;23;20025;-45
2023/06/11 04:50:36;;;;;;;2.20;1.30;;;;;;;;;;6145470;23;20048;-48
2023/06/11 04:53:03;;;;;;;2.10;1.40;;;;;;;;;;6145496;23;20028;-50
2023/06/11 04:55:38;;;;;;;1.77;1.30;;;;;;;;;;6145067;23;20029;-48
2023/06/11 04:58:06;;;;;;;1.75;1.15;;;;;;;;;;6144626;23;20026;-48
2023/06/11 05:00:40;;;;;;;3.08;1.63;;;;;;;;;;6121150;23;20049;-49
2023/06/11 05:03:07;;;;;;;4.78;1.30;;;;;;;;;;6136736;23;20076;-42
2023/06/11 05:05:35;;;;;;;3.92;1.45;;;;;;;;;;6144322;23;20025;-43
2023/06/11 05:08:09;;;;;;;5.68;1.23;;;;;;;;;;6143876;23;20022;-44
2023/06/11 05:10:37;;;;;;;2.20;1.45;;;;;;;;;;6144948;23;20033;-43
2023/06/11 05:13:12;;;;;;;1.90;1.52;;;;;;;;;;6144117;23;20513;-44
2023/06/11 05:15:39;;;;;;;2.22;1.38;;;;;;;;;;6145095;23;20079;-44
2023/06/11 05:18:06;;;;;;;4.90;1.30;;;;;;;;;;6145420;23;20025;-42
2023/06/11 05:20:40;;;;;;;1.65;1.42;;;;;;;;;;6145547;23;20501;-46
2023/06/11 05:23:07;;;;;;;3.28;1.88;;;;;;;;;;6142683;23;20599;-47
2023/06/11 05:25:35;;;;;;;2.83;1.40;;;;;;;;;;6146918;23;20033;-50
2023/06/11 05:28:09;;;;;;;1.83;1.30;;;;;;;;;;6143515;23;20026;-51
2023/06/11 05:30:36;;;;;;;5.03;1.50;;;;;;;;;;6143697;23;20528;-43
2023/06/11 05:33:10;;;;;;;4.75;1.50;;;;;;;;;;6144712;23;20561;-43
2023/06/11 05:35:38;;;;;;;1.42;1.00;;;;;;;;;;6145922;23;20029;-42
2023/06/11 05:38:08;;;;;;;;;;;;;;;;;;6145516;23;20048;-47
2023/06/11 05:40:42;;;;;;;4.95;1.58;;;;;;;;;;6145070;23;19921;-49
2023/06/11 05:43:09;;;;;;;3.28;1.50;;;;;;;;;;6116404;23;20021;-42
2023/06/11 05:45:37;;;;;;;2.78;1.40;;;;;;;;;;6145845;23;20028;-48
2023/06/11 05:48:10;;;;;;;1.90;1.50;;;;;;;;;;6145750;23;20022;-44
2023/06/11 05:50:44;;;;;;;2.22;1.30;;;;;;;;;;6144692;23;20032;-51
2023/06/11 05:53:17;;;;;;;2.90;1.40;;;;;;;;;;6146013;23;20025;-47
2023/06/11 05:55:44;;;;;;;3.13;1.63;;;;;;;;;;6146807;23;20029;-46
2023/06/11 05:58:12;;;;;;;3.78;1.40;;;;;;;;;;6142973;23;20060;-48
2023/06/11 06:00:45;;;;;;;4.75;1.67;;;;;;;;;;6147104;23;20032;-43
2023/06/11 06:03:12;;;;;;;1.60;1.15;;;;;;;;;;6146553;23;20044;-59
2023/06/11 06:05:47;;;;;;;2.78;1.33;;;;;;;;;;6146043;23;20481;-59
2023/06/11 06:08:14;;;;;;;3.30;1.40;;;;;;;;;;6145968;23;20017;-59
2023/06/11 06:10:42;;;;;;;3.35;1.50;;;;;;;;;;6145743;23;20025;-57
2023/06/11 06:13:16;;;;;;;2.13;1.45;;;;;;;;;;6144822;23;20026;-58
2023/06/11 06:15:43;;;;;;;;;;;;;;;;;;6143210;23;20739;-58
2023/06/11 06:18:17;;;;;;;3.78;1.88;;;;;;;;;;6140464;23;19920;-47
2023/06/11 06:20:46;;;;;;;5.38;1.55;;;;;;;;;;6132990;23;20776;-46
2023/06/11 06:23:13;;;;;;;4.38;1.50;;;;;;;;;;6138638;23;20552;-50
2023/06/11 06:25:47;;;;;;;2.35;1.20;;;;;;;;;;6138258;23;20385;-44
2023/06/11 06:28:17;;;;;;;4.95;1.75;;;;;;;;;;6144884;23;20421;-57
2023/06/11 06:30:50;;;;;;;5.03;1.40;;;;;;;;;;6144672;23;20092;-59
2023/06/11 06:33:17;;;;;;;3.20;1.48;;;;;;;;;;6144714;23;20061;-59
2023/06/11 06:35:45;;;;;;;4.30;1.58;;;;;;;;;;6146357;23;20109;-59
2023/06/11 06:38:19;;;;;;;11.85;2.05;;;;;;;;;;6147750;23;20021;-59
2023/06/11 06:40:46;;;;;;;5.32;1.55;;;;;;;;;;6144838;23;20077;-61
2023/06/11 06:43:14;;;;;;;3.75;1.60;;;;;;;;;;6139915;23;20099;-58
2023/06/11 06:45:48;;;;;;;2.72;1.42;;;;;;;;;;6139765;23;20512;-52
2023/06/11 06:48:16;;;;;;;7.00;1.98;;;;;;;;;;6139613;23;20026;-52
2023/06/11 06:50:57;;;;;;;2.22;1.50;;;;;;;;;;6137931;23;20088;-46
2023/06/11 06:53:24;;;;;;;1.58;1.10;;;;;;;;;;6145172;23;20032;-43
2023/06/11 06:56:00;;;;;;;3.80;1.67;;;;;;;;;;6147703;23;20026;-43
2023/06/11 06:58:33;;;;;;;4.05;1.40;;;;;;;;;;6145220;23;20115;-45
2023/06/11 07:01:00;;;;;;;4.07;1.65;;;;;;;;;;6143362;23;20029;-43
2023/06/11 07:03:34;;;;;;;4.32;1.90;;;;;;;;;;6143281;23;20048;-46
2023/06/11 07:06:02;;;;;;;;;;;;;;;;;;6141836;23;20294;-47
2023/06/11 07:08:29;;;;;;;1.10;1.00;;;;;;;;;;6143220;23;19920;-53
2023/06/11 07:11:03;;;;;;;5.15;1.98;;;;;;;;;;6145399;23;20515;-52
2023/06/11 07:13:30;;;;;;;2.60;1.70;;;;;;;;;;6119611;23;20350;-53
2023/06/11 07:16:05;;;;;;;5.20;1.60;;;;;;;;;;6147508;23;20034;-51
2023/06/11 07:18:32;;;;;;;5.90;1.42;;;;;;;;;;6145663;23;20049;-51
2023/06/11 07:21:00;;;;;;;4.18;1.50;;;;;;;;;;6143611;23;20036;-52
2023/06/11 07:23:34;;;;;;;1.35;1.25;;;;;;;;;;6147637;23;20095;-50
2023/06/11 07:26:02;;;;;;;3.92;1.58;;;;;;;;;;6145530;23;20104;-52
2023/06/11 07:28:29;;;;;;;5.53;1.63;;;;;;;;;;6143256;23;20029;-51
2023/06/11 07:31:03;;;;;;;3.72;1.55;;;;;;;;;;6143096;23;20033;-50
2023/06/11 07:33:31;;;;;;;1.95;1.48;;;;;;;;;;6145399;23;20034;-47
2023/06/11 07:36:04;;;;;;;3.65;1.80;;;;;;;;;;6144057;23;20032;-47
2023/06/11 07:38:38;;;;;;;4.47;1.63;;;;;;;;;;6145111;23;20076;-47
2023/06/11 07:41:15;;;;;;;3.30;1.38;;;;;;;;;;6146797;23;20025;-48
2023/06/11 07:43:42;;;;;;;3.95;1.55;;;;;;;;;;6145418;23;20351;-50
2023/06/11 07:46:10;;;;;;;3.08;1.73;;;;;;;;;;6145354;23;20381;-48
2023/06/11 07:48:57;;;;;;;6.90;1.58;;;;;;;;;;6142813;23;20445;-48
2023/06/11 07:51:31;;;;;;;2.50;1.38;;;;;;;;;;6144667;23;20029;-49
2023/06/11 07:54:06;;;;;;;1.60;1.38;;;;;;;;;;6146663;23;20029;-61
2023/06/11 07:56:33;;;;;;;4.30;1.75;;;;;;;;;;6142386;23;20029;-51
2023/06/11 07:59:07;;;;;;;7.72;1.85;;;;;;;;;;6143209;23;20025;-52
2023/06/11 08:01:36;;;;;;;4.63;1.40;;;;;;;;;;6145920;23;20029;-52
2023/06/11 08:04:03;;;;;;;4.70;1.70;;;;;;;;;;6142431;23;20025;-53
2023/06/11 08:06:37;;;;;;;3.38;1.30;;;;;;;;;;6143732;23;20022;-51
2023/06/11 08:09:05;;;;;;;;;;;;;;;;;;6146579;23;20072;-53
2023/06/11 08:11:41;;;;;;;1.60;1.40;;;;;;;;;;6144555;23;19947;-63
2023/06/11 08:14:08;;;;;;;3.55;1.40;;;;;;;;;;6143659;23;20018;-61
2023/06/11 08:16:36;;;;;;;4.03;1.70;;;;;;;;;;6146783;23;20030;-62
2023/06/11 08:19:10;;;;;;;3.83;1.70;;;;;;;;;;6143222;23;20388;-62
2023/06/11 08:21:37;;;;;;;3.28;1.80;;;;;;;;;;6145546;23;20458;-43
2023/06/11 08:24:11;;;;;;;5.65;1.85;;;;;;;;;;6144289;23;20057;-58
2023/06/11 08:26:38;;;;;;;;;;;;;;;;;;6147660;23;20137;-57
2023/06/11 08:29:06;;;;;;;3.33;1.25;;;;;;;;;;6144573;23;19978;-56
2023/06/11 08:31:40;;;;;;;2.40;1.50;;;;;;;;;;6147262;23;20072;-57
2023/06/11 08:34:07;;;;;;;6.60;1.70;;;;;;;;;;6143792;23;20032;-57
2023/06/11 08:36:34;;;;;;;5.88;1.38;;;;;;;;;;6146997;23;20025;-56
2023/06/11 08:39:08;;;;;;;3.65;1.52;;;;;;;;;;6147392;23;20052;-58
2023/06/11 08:41:36;;;;;;;2.45;1.23;;;;;;;;;;6146163;23;20060;-56
2023/06/11 08:44:09;;;;;;;2.83;1.60;;;;;;;;;;6144485;23;20025;-57
2023/06/11 08:46:37;;;;;;;3.88;1.50;;;;;;;;;;6145616;23;20030;-58
2023/06/11 08:49:07;;;;;;;6.97;1.60;;;;;;;;;;6145067;23;20104;-47
2023/06/11 08:51:41;;;;;;;3.80;0.95;;;;;;;;;;6145827;23;20030;-46
2023/06/11 08:54:09;;;;;;;2.08;1.50;;;;;;;;;;6145909;23;20096;-47
2023/06/11 08:56:44;;;;;;;2.75;1.42;;;;;;;;;;6145740;23;20056;-50
2023/06/11 08:59:11;;;;;;;3.30;1.60;;;;;;;;;;6142712;23;20021;-49
2023/06/11 09:01:50;;;;;;;1.73;1.27;;;;;;;;;;6144152;23;20026;-49
2023/06/11 09:04:18;;;;;;;9.30;1.70;;;;;;;;;;6143246;23;20025;-53
2023/06/11 09:07:00;;;;;;;2.28;1.35;;;;;;;;;;6145251;23;20032;-50
2023/06/11 09:09:28;;;;;;;1.70;1.20;;;;;;;;;;6142829;23;20017;-46
2023/06/11 09:12:07;;;;;;;2.05;1.42;;;;;;;;;;6140790;23;20107;-48
2023/06/11 09:14:34;;;;;;;3.58;1.23;;;;;;;;;;6117201;23;20381;-46
2023/06/11 09:17:15;;;;;;;3.95;1.20;;;;;;;;;;6144690;23;20025;-52
2023/06/11 09:19:43;;;;;;;3.13;1.40;;;;;;;;;;6143397;23;20026;-45
2023/06/11 09:22:25;;;;;;;2.10;1.50;;;;;;;;;;6144834;23;20064;-49
2023/06/11 09:24:52;;;;;;;3.97;1.40;;;;;;;;;;6144418;23;20548;-50
2023/06/11 09:27:28;;;;;;;3.45;1.60;;;;;;;;;;6143191;23;20079;-50
2023/06/11 09:29:55;;;;;;;1.42;1.23;;;;;;;;;;6142969;23;20021;-47
2023/06/11 09:32:25;;;;;;;1.88;1.23;;;;;;;;;;6142716;23;20025;-51
2023/06/11 09:35:01;;;;;;;2.53;1.55;;;;;;;;;;6143031;23;20167;-46
2023/06/11 09:37:28;;;;;;;5.47;1.20;;;;;;;;;;6141902;23;20091;-46
2023/06/11 09:40:02;;;;;;;1.83;1.20;;;;;;;;;;6144880;23;20389;-47
2023/06/11 09:42:29;;;;;;;4.90;1.30;;;;;;;;;;6141577;23;20032;-46
2023/06/11 09:45:00;;;;;;;3.13;1.42;;;;;;;;;;6145200;23;20029;-59
2023/06/11 09:47:36;;;;;;;4.30;1.40;;;;;;;;;;6144177;23;20025;-49
2023/06/11 09:50:18;;;;;;;1.63;1.30;;;;;;;;;;6144914;23;20699;-52
2023/06/11 09:52:52;;;;;;;;;;;;;;;;;;6145907;23;20088;-55
2023/06/11 09:55:21;;;;;;;2.65;1.25;;;;;;;;;;6144792;23;20368;-56
2023/06/11 09:57:49;;;;;;;2.05;1.40;;;;;;;;;;6143216;23;20026;-56
2023/06/11 10:00:23;;;;;;;3.47;1.40;;;;;;;;;;6143406;23;20021;-55
2023/06/11 10:02:50;;;;;;;;;;;;;;;;;;6145134;23;20149;-56
2023/06/11 10:05:25;;;;;;;3.95;1.40;;;;;;;;;;6146316;23;19924;-46
2023/06/11 10:08:02;;;;;;;3.22;1.10;;;;;;;;;;6116839;23;20080;-46
2023/06/11 10:10:36;;;;;;;2.72;1.50;;;;;;;;;;6144101;23;20061;-48
2023/06/11 10:13:04;;;;;;;5.15;1.23;;;;;;;;;;6144618;23;20029;-48
2023/06/11 10:15:32;;;;;;;2.03;1.38;;;;;;;;;;6117351;23;20392;-46
2023/06/11 10:18:15;;;;;;;3.10;1.20;;;;;;;;;;6142918;23;20017;-52
2023/06/11 10:20:52;;;;;;;4.00;1.60;;;;;;;;;;6145486;23;20076;-53
2023/06/11 10:23:41;;;;;;;4.90;1.40;;;;;;;;;;6144359;23;20500;-50
2023/06/11 10:26:15;;;;;;;2.83;1.50;;;;;;;;;;6144016;23;20519;-50
2023/06/11 10:28:48;;;;;;;2.33;1.13;;;;;;;;;;6144581;23;20113;-52
2023/06/11 10:31:31;;;;;;;1.40;1.30;;;;;;;;;;6142724;23;20029;-50
2023/06/11 10:34:05;;;;;;;3.15;1.27;;;;;;;;;;6143137;23;20022;-48
2023/06/11 10:36:42;;;;;;;3.60;1.60;;;;;;;;;;6141055;23;20029;-49
2023/06/11 10:39:30;;;;;;;2.15;1.45;;;;;;;;;;6143198;23;20031;-51
2023/06/11 10:42:05;;;;;;;2.13;1.50;;;;;;;;;;6145512;23;20021;-50
2023/06/11 10:44:40;;;;;;;1.67;1.27;;;;;;;;;;6143980;23;21011;-52
2023/06/11 10:47:14;;;;;;;3.53;1.40;;;;;;;;;;6146399;23;20095;-47
2023/06/11 10:49:48;;;;;;;2.90;1.35;;;;;;;;;;6146950;23;20540;-47
2023/06/11 10:52:22;;;;;;;1.85;1.45;;;;;;;;;;6146539;23;20438;-51
2023/06/11 10:54:50;;;;;;;3.50;1.48;;;;;;;;;;6145094;23;20072;-48
2023/06/11 10:57:17;;;;;;;3.45;1.50;;;;;;;;;;6143540;23;20033;-50
2023/06/11 10:59:52;;;;;;;1.75;1.23;;;;;;;;;;6143826;23;20025;-50
2023/06/11 11:02:27;;;;;;;2.78;1.35;;;;;;;;;;6142402;23;20025;-52
2023/06/11 11:05:02;;;;;;;2.20;1.42;;;;;;;;;;6146893;23;20018;-51
2023/06/11 11:07:33;;;;;;;1.55;1.25;;;;;;;;;;6146817;23;20025;-47
2023/06/11 11:10:07;;;;;;;2.60;1.45;;;;;;;;;;6146208;23;20080;-57
2023/06/11 11:12:34;;;;;;;;;;;;;;;;;;6146988;23;20037;-56
2023/06/11 11:15:10;;;;;;;1.25;1.15;;;;;;;;;;6142152;23;20356;-47
2023/06/11 11:17:41;;;;;;;2.03;1.50;;;;;;;;;;6143639;23;20033;-47
2023/06/11 11:20:22;;;;;;;3.40;1.45;;;;;;;;;;6144439;23;20014;-49
2023/06/11 11:22:57;;;;;;;3.28;1.65;;;;;;;;;;6143876;23;20025;-46
2023/06/11 11:25:32;;;;;;;3.47;1.67;;;;;;;;;;6145476;23;20022;-48
2023/06/11 15:52:16;;;;;;;4.43;1.50;;;;;;;;;;6199437;23;20052;-50
2023/06/11 15:54:50;;;;;;;3.10;1.60;;;;;;;;;;6201341;23;20435;-46
2023/06/11 15:57:17;;;;;;;;;;;;;;;;;;6200468;23;20024;-50
2023/06/11 15:59:51;;;;;;;3.30;1.45;;;;;;;;;;6205440;23;19919;-51
2023/06/11 16:02:18;;;;;;;;;;;;;;;;;;6202762;23;20036;-54
2023/06/11 16:04:47;;;;;;;1.50;1.38;;;;;;;;;;6203204;23;20580;-54
2023/06/11 16:07:22;;;;;;;1.98;1.52;;;;;;;;;;6203517;23;20024;-51
2023/06/11 16:09:49;;;;;;;3.40;1.70;;;;;;;;;;6203332;23;20032;-50
2023/06/11 16:12:16;;;;;;;3.30;1.85;;;;;;;;;;6201757;23;20554;-54
2023/06/11 16:14:50;;;;;;;4.50;1.50;;;;;;;;;;6204081;23;20439;-48
2023/06/11 16:17:19;;;;;;;4.80;1.80;;;;;;;;;;6202432;23;20024;-45
2023/06/11 16:19:53;;;;;;;3.03;1.52;;;;;;;;;;6203076;23;20411;-45
2023/06/11 16:22:20;;;;;;;9.93;1.50;;;;;;;;;;6194002;23;20773;-46
2023/06/11 16:24:47;;;;;;;2.75;1.35;;;;;;;;;;6200307;23;20052;-58
2023/06/11 16:27:20;;;;;;;3.90;1.70;;;;;;;;;;6199242;23;20426;-61
2023/06/11 16:29:47;;;;;;;8.50;1.70;;;;;;;;;;6201854;23;20020;-62
2023/06/11 16:32:21;;;;;;;2.00;1.48;;;;;;;;;;6201246;23;20807;-62
2023/06/11 16:34:48;;;;;;;6.90;1.50;;;;;;;;;;6201059;23;20087;-63
2023/06/11 16:37:16;;;;;;;1.67;1.48;;;;;;;;;;6200769;23;20110;-62
2023/06/11 16:39:50;;;;;;;2.50;1.60;;;;;;;;;;6200741;23;20105;-62
2023/06/11 16:42:17;;;;;;;4.15;1.85;;;;;;;;;;6201016;23;20028;-51
2023/06/11 16:44:50;;;;;;;3.45;1.55;;;;;;;;;;6201212;23;20025;-54
2023/06/11 16:47:32;;;;;;;3.30;1.40;;;;;;;;;;6201081;23;20107;-51
2023/06/11 16:50:12;;;;;;;1.80;1.50;;;;;;;;;;6201569;23;20504;-51
2023/06/11 16:52:48;;;;;;;3.97;1.48;;;;;;;;;;6202999;23;20028;-55
2023/06/11 16:55:21;;;;;;;3.20;1.48;;;;;;;;;;6201431;23;20721;-52
2023/06/11 16:57:55;;;;;;;3.58;1.70;;;;;;;;;;6201382;23;20040;-53
2023/06/11 17:00:24;;;;;;;5.65;1.90;;;;;;;;;;6201412;23;20550;-57
2023/06/11 17:02:54;;;;;;;4.50;1.45;;;;;;;;;;6203269;23;20031;-50
2023/06/11 17:05:27;;;;;;;2.03;1.45;;;;;;;;;;6201787;23;20029;-44
2023/06/11 17:07:55;;;;;;;5.93;1.77;;;;;;;;;;6201742;23;20095;-44
2023/06/11 17:10:29;;;;;;;4.97;1.70;;;;;;;;;;6198120;23;20119;-46
2023/06/11 17:12:57;;;;;;;3.08;1.60;;;;;;;;;;6202994;23;20051;-50
2023/06/11 17:15:25;;;;;;;4.07;1.45;;;;;;;;;;6175046;23;20024;-47
2023/06/11 17:17:59;;;;;;;3.60;1.60;;;;;;;;;;6200803;23;20039;-48
2023/06/11 17:20:27;;;;;;;;;;;;;;;;;;6201649;23;20117;-52
2023/06/11 17:22:54;;;;;;;6.03;1.75;;;;;;;;;;6199589;23;20359;-47
2023/06/11 17:25:28;;;;;;;2.65;1.60;;;;;;;;;;6200969;23;20025;-51
2023/06/11 17:27:55;;;;;;;3.95;1.80;;;;;;;;;;6200193;23;20036;-52
2023/06/11 17:30:29;;;;;;;8.93;1.77;;;;;;;;;;6202581;23;20028;-47
2023/06/11 17:32:57;;;;;;;5.15;1.30;;;;;;;;;;6200866;23;20028;-51
2023/06/11 17:35:24;;;;;;;;;;;;;;;;;;6201310;23;20031;-50
2023/06/11 17:37:57;;;;;;;4.57;1.60;;;;;;;;;;6201974;23;19922;-46
2023/06/11 17:40:27;;;;;;;5.63;1.73;;;;;;;;;;6202290;23;20024;-49
2023/06/11 17:43:02;;;;;;;5.70;1.60;;;;;;;;;;6177054;23;20063;-49
2023/06/11 17:45:29;;;;;;;3.00;1.58;;;;;;;;;;6200583;23;20028;-50
2023/06/11 17:47:56;;;;;;;2.22;1.73;;;;;;;;;;6201110;23;20083;-50
2023/06/11 17:50:31;;;;;;;3.92;1.50;;;;;;;;;;6200282;23;20074;-53
2023/06/11 17:52:58;;;;;;;5.03;1.60;;;;;;;;;;6198769;23;20025;-53
2023/06/11 17:55:38;;;;;;;3.75;1.40;;;;;;;;;;6201337;23;20559;-49
2023/06/11 17:58:05;;;;;;;5.50;1.50;;;;;;;;;;6201165;23;20032;-50
2023/06/11 18:00:39;;;;;;;3.88;1.75;;;;;;;;;;6203765;23;20024;-53
2023/06/11 18:03:07;;;;;;;;;;;;;;;;;;6204220;23;20024;-49
2023/06/11 18:05:34;;;;;;;5.70;1.92;;;;;;;;;;6203402;23;20382;-47
2023/06/11 18:08:08;;;;;;;3.33;1.95;;;;;;;;;;6203898;23;20024;-48
2023/06/11 18:10:35;;;;;;;3.28;1.90;;;;;;;;;;6203163;23;20391;-51
2023/06/11 18:13:08;;;;;;;1.73;1.60;;;;;;;;;;6204114;23;20106;-51
2023/06/11 18:15:35;;;;;;;4.65;1.60;;;;;;;;;;6205894;23;20032;-52
2023/06/11 18:18:10;;;;;;;3.45;1.60;;;;;;;;;;6205105;23;20083;-53
2023/06/11 18:20:38;;;;;;;;;;;;;;;;;;6205290;23;20025;-54
2023/06/11 18:23:05;;;;;;;4.18;1.98;;;;;;;;;;6204154;23;19978;-52
2023/06/11 18:25:40;;;;;;;2.08;1.75;;;;;;;;;;6205930;23;20086;-53
2023/06/11 18:28:07;;;;;;;3.03;1.70;;;;;;;;;;6203251;23;20032;-53
2023/06/11 18:30:40;;;;;;;4.57;1.65;;;;;;;;;;6205705;23;20025;-53
2023/06/11 18:33:08;;;;;;;2.83;1.50;;;;;;;;;;6204498;23;20029;-60
2023/06/11 18:35:35;;;;;;;;;;;;;;;;;;6207260;23;20102;-61
2023/06/11 18:38:10;;;;;;;3.90;1.80;;;;;;;;;;6206250;23;19916;-61
2023/06/11 18:40:37;;;;;;;3.13;1.52;;;;;;;;;;6205113;23;20024;-61
2023/06/11 18:43:11;;;;;;;6.00;1.73;;;;;;;;;;6206219;23;20054;-61
2023/06/11 18:45:38;;;;;;;4.95;2.03;;;;;;;;;;6206523;23;20027;-60
2023/06/11 18:48:05;;;;;;;3.63;1.80;;;;;;;;;;6204929;23;20332;-51
2023/06/11 18:50:40;;;;;;;4.15;2.65;;;;;;;;;;6202815;23;20537;-55
2023/06/11 18:53:13;;;;;;;3.42;1.98;;;;;;;;;;6206052;23;20636;-49
2023/06/11 18:55:46;;;;;;;3.33;1.90;;;;;;;;;;6202445;23;20020;-52
2023/06/11 18:58:14;;;;;;;5.50;1.80;;;;;;;;;;6205548;23;20086;-53
2023/06/11 19:00:44;;;;;;;3.47;1.83;;;;;;;;;;6207395;23;20094;-47
2023/06/11 19:03:17;;;;;;;4.20;1.63;;;;;;;;;;6204576;23;20025;-50
2023/06/11 19:05:45;;;;;;;4.15;1.88;;;;;;;;;;6204838;23;20581;-57
2023/06/11 19:08:19;;;;;;;5.47;1.90;;;;;;;;;;6204586;23;20083;-59
2023/06/11 19:10:47;;;;;;;4.25;1.88;;;;;;;;;;6206414;23;20036;-56
2023/06/11 19:13:18;;;;;;;5.88;1.92;;;;;;;;;;6204855;23;20103;-58
2023/06/11 19:15:53;;;;;;;7.03;1.67;;;;;;;;;;6206258;23;20032;-58
2023/06/11 19:18:20;;;;;;;2.40;1.52;;;;;;;;;;6202904;23;20031;-57
2023/06/11 19:20:48;;;;;;;7.22;1.92;;;;;;;;;;6202523;23;20044;-57
2023/06/11 19:23:21;;;;;;;3.13;1.80;;;;;;;;;;6204157;23;20028;-55
2023/06/11 19:25:50;;;;;;;4.95;1.60;;;;;;;;;;6203000;23;20059;-48
2023/06/11 19:28:24;;;;;;;4.75;1.50;;;;;;;;;;6206051;23;20036;-51
2023/06/11 19:30:52;;;;;;;5.90;1.52;;;;;;;;;;6204302;23;20075;-55
2023/06/11 19:33:19;;;;;;;4.32;1.50;;;;;;;;;;6205345;23;20757;-52
2023/06/11 19:35:52;;;;;;;2.70;1.63;;;;;;;;;;6202515;23;20020;-51